sensor_id;sensor_type;location;lat;lon;timestamp;P1;durP1;ratioP1;P2;durP2;ratioP2
38312;SDS011;24114;52.260;6.714;2022-10-16T00:02:21;3.53;;;2.17;;
38312;SDS011;24114;52.260;6.714;2022-10-16T00:04:48;3.65;;;1.92;;
38312;SDS011;24114;52.260;6.714;2022-10-16T00:07:16;4.40;;;1.87;;
38312;SDS011;24114;52.260;6.714;2022-10-16T00:09:45;2.88;;;2.05;;
38312;SDS011;24114;52.260;6.714;2022-10-16T00:12:13;3.88;;;2.00;;
38312;SDS011;24114;52.260;6.714;2022-10-16T00:14:40;3.10;;;2.00;;
38312;SDS011;24114;52.260;6.714;2022-10-16T00:17:10;2.83;;;2.10;;
38312;SDS011;24114;52.260;6.714;2022-10-16T00:19:37;3.83;;;2.17;;
38312;SDS011;24114;52.260;6.714;2022-10-16T00:22:05;4.93;;;2.22;;
38312;SDS011;24114;52.260;6.714;2022-10-16T00:24:33;5.07;;;1.80;;
38312;SDS011;24114;52.260;6.714;2022-10-16T00:27:02;3.08;;;2.00;;
38312;SDS011;24114;52.260;6.714;2022-10-16T00:29:29;3.13;;;2.10;;
38312;SDS011;24114;52.260;6.714;2022-10-16T00:31:57;4.30;;;2.10;;
38312;SDS011;24114;52.260;6.714;2022-10-16T00:34:25;3.63;;;2.10;;
38312;SDS011;24114;52.260;6.714;2022-10-16T00:36:52;5.00;;;2.15;;
38312;SDS011;24114;52.260;6.714;2022-10-16T00:39:20;3.75;;;1.88;;
38312;SDS011;24114;52.260;6.714;2022-10-16T00:41:48;5.55;;;2.13;;
38312;SDS011;24114;52.260;6.714;2022-10-16T00:47:11;3.13;;;1.95;;
38312;SDS011;24114;52.260;6.714;2022-10-16T00:49:40;3.92;;;1.88;;
38312;SDS011;24114;52.260;6.714;2022-10-16T00:52:08;4.75;;;1.80;;
38312;SDS011;24114;52.260;6.714;2022-10-16T00:54:37;2.63;;;1.60;;
38312;SDS011;24114;52.260;6.714;2022-10-16T00:57:05;2.60;;;1.45;;
38312;SDS011;24114;52.260;6.714;2022-10-16T00:59:34;5.82;;;1.85;;
38312;SDS011;24114;52.260;6.714;2022-10-16T01:02:06;4.07;;;1.63;;
38312;SDS011;24114;52.260;6.714;2022-10-16T01:04:36;2.88;;;1.65;;
38312;SDS011;24114;52.260;6.714;2022-10-16T01:07:07;3.67;;;2.10;;
38312;SDS011;24114;52.260;6.714;2022-10-16T01:09:43;3.50;;;1.83;;
38312;SDS011;24114;52.260;6.714;2022-10-16T01:12:17;5.70;;;1.85;;
38312;SDS011;24114;52.260;6.714;2022-10-16T01:14:52;6.68;;;2.33;;
38312;SDS011;24114;52.260;6.714;2022-10-16T01:17:28;4.50;;;2.20;;
38312;SDS011;24114;52.260;6.714;2022-10-16T01:20:01;3.30;;;1.95;;
38312;SDS011;24114;52.260;6.714;2022-10-16T01:22:34;3.70;;;2.40;;
38312;SDS011;24114;52.260;6.714;2022-10-16T01:25:08;3.08;;;1.98;;
38312;SDS011;24114;52.260;6.714;2022-10-16T01:27:40;3.50;;;2.08;;
38312;SDS011;24114;52.260;6.714;2022-10-16T01:30:10;3.60;;;2.50;;
38312;SDS011;24114;52.260;6.714;2022-10-16T01:32:41;3.47;;;2.20;;
38312;SDS011;24114;52.260;6.714;2022-10-16T01:35:10;3.97;;;2.35;;
38312;SDS011;24114;52.260;6.714;2022-10-16T01:37:40;3.58;;;2.60;;
38312;SDS011;24114;52.260;6.714;2022-10-16T01:40:14;3.80;;;2.40;;
38312;SDS011;24114;52.260;6.714;2022-10-16T01:42:46;3.58;;;2.25;;
38312;SDS011;24114;52.260;6.714;2022-10-16T01:45:16;3.17;;;2.78;;
38312;SDS011;24114;52.260;6.714;2022-10-16T01:47:46;3.75;;;2.63;;
38312;SDS011;24114;52.260;6.714;2022-10-16T01:50:15;4.00;;;2.88;;
38312;SDS011;24114;52.260;6.714;2022-10-16T01:52:45;4.00;;;2.95;;
38312;SDS011;24114;52.260;6.714;2022-10-16T01:55:16;3.88;;;2.80;;
38312;SDS011;24114;52.260;6.714;2022-10-16T01:57:47;5.07;;;3.15;;
38312;SDS011;24114;52.260;6.714;2022-10-16T02:00:17;5.45;;;2.90;;
38312;SDS011;24114;52.260;6.714;2022-10-16T02:02:47;5.38;;;2.85;;
38312;SDS011;24114;52.260;6.714;2022-10-16T02:05:18;5.43;;;3.33;;
38312;SDS011;24114;52.260;6.714;2022-10-16T02:07:49;5.70;;;3.67;;
38312;SDS011;24114;52.260;6.714;2022-10-16T02:10:17;3.67;;;3.00;;
38312;SDS011;24114;52.260;6.714;2022-10-16T02:12:48;4.93;;;3.60;;
38312;SDS011;24114;52.260;6.714;2022-10-16T02:15:17;3.53;;;3.22;;
38312;SDS011;24114;52.260;6.714;2022-10-16T02:17:45;3.53;;;3.22;;
38312;SDS011;24114;52.260;6.714;2022-10-16T02:20:12;4.35;;;3.40;;
38312;SDS011;24114;52.260;6.714;2022-10-16T02:22:41;5.40;;;3.40;;
38312;SDS011;24114;52.260;6.714;2022-10-16T02:25:12;4.05;;;3.72;;
38312;SDS011;24114;52.260;6.714;2022-10-16T02:27:46;5.00;;;3.55;;
38312;SDS011;24114;52.260;6.714;2022-10-16T02:30:19;7.60;;;4.00;;
38312;SDS011;24114;52.260;6.714;2022-10-16T02:32:49;7.00;;;3.83;;
38312;SDS011;24114;52.260;6.714;2022-10-16T02:35:18;4.53;;;3.40;;
38312;SDS011;24114;52.260;6.714;2022-10-16T02:37:47;4.35;;;3.40;;
38312;SDS011;24114;52.260;6.714;2022-10-16T02:40:16;5.07;;;3.20;;
38312;SDS011;24114;52.260;6.714;2022-10-16T02:42:52;3.92;;;3.40;;
38312;SDS011;24114;52.260;6.714;2022-10-16T02:45:20;5.75;;;3.53;;
38312;SDS011;24114;52.260;6.714;2022-10-16T02:47:48;4.72;;;3.45;;
38312;SDS011;24114;52.260;6.714;2022-10-16T02:50:16;5.65;;;3.70;;
38312;SDS011;24114;52.260;6.714;2022-10-16T02:52:44;4.25;;;3.30;;
38312;SDS011;24114;52.260;6.714;2022-10-16T02:55:11;4.07;;;3.67;;
38312;SDS011;24114;52.260;6.714;2022-10-16T02:57:39;4.80;;;3.38;;
38312;SDS011;24114;52.260;6.714;2022-10-16T03:00:09;5.05;;;3.40;;
38312;SDS011;24114;52.260;6.714;2022-10-16T03:02:40;4.18;;;3.63;;
38312;SDS011;24114;52.260;6.714;2022-10-16T03:05:08;3.33;;;3.03;;
38312;SDS011;24114;52.260;6.714;2022-10-16T03:07:36;4.00;;;3.25;;
38312;SDS011;24114;52.260;6.714;2022-10-16T03:10:04;3.00;;;2.70;;
38312;SDS011;24114;52.260;6.714;2022-10-16T03:12:32;4.50;;;3.42;;
38312;SDS011;24114;52.260;6.714;2022-10-16T03:15:00;5.57;;;3.63;;
38312;SDS011;24114;52.260;6.714;2022-10-16T03:17:29;3.17;;;2.75;;
38312;SDS011;24114;52.260;6.714;2022-10-16T03:19:57;4.55;;;3.25;;
38312;SDS011;24114;52.260;6.714;2022-10-16T03:22:25;4.77;;;3.10;;
38312;SDS011;24114;52.260;6.714;2022-10-16T03:24:52;3.67;;;2.50;;
38312;SDS011;24114;52.260;6.714;2022-10-16T03:27:20;4.67;;;2.87;;
38312;SDS011;24114;52.260;6.714;2022-10-16T03:29:48;4.13;;;3.00;;
38312;SDS011;24114;52.260;6.714;2022-10-16T03:32:16;2.90;;;2.60;;
38312;SDS011;24114;52.260;6.714;2022-10-16T03:34:45;3.17;;;2.88;;
38312;SDS011;24114;52.260;6.714;2022-10-16T03:37:13;3.92;;;2.28;;
38312;SDS011;24114;52.260;6.714;2022-10-16T03:39:41;2.85;;;2.40;;
38312;SDS011;24114;52.260;6.714;2022-10-16T03:42:08;2.75;;;2.30;;
38312;SDS011;24114;52.260;6.714;2022-10-16T03:44:36;2.30;;;2.03;;
38312;SDS011;24114;52.260;6.714;2022-10-16T03:47:04;4.50;;;2.50;;
38312;SDS011;24114;52.260;6.714;2022-10-16T03:49:31;5.38;;;2.35;;
38312;SDS011;24114;52.260;6.714;2022-10-16T03:52:00;3.33;;;2.25;;
38312;SDS011;24114;52.260;6.714;2022-10-16T03:54:28;3.83;;;2.35;;
38312;SDS011;24114;52.260;6.714;2022-10-16T03:56:56;2.70;;;2.30;;
38312;SDS011;24114;52.260;6.714;2022-10-16T03:59:23;2.30;;;2.10;;
38312;SDS011;24114;52.260;6.714;2022-10-16T04:01:51;3.47;;;1.80;;
38312;SDS011;24114;52.260;6.714;2022-10-16T04:04:18;3.08;;;2.03;;
38312;SDS011;24114;52.260;6.714;2022-10-16T04:06:46;2.53;;;2.10;;
38312;SDS011;24114;52.260;6.714;2022-10-16T04:09:15;5.53;;;2.00;;
38312;SDS011;24114;52.260;6.714;2022-10-16T04:11:43;2.17;;;1.77;;
38312;SDS011;24114;52.260;6.714;2022-10-16T04:14:10;2.80;;;1.90;;
38312;SDS011;24114;52.260;6.714;2022-10-16T04:16:38;2.20;;;1.92;;
38312;SDS011;24114;52.260;6.714;2022-10-16T04:19:05;3.60;;;2.00;;
38312;SDS011;24114;52.260;6.714;2022-10-16T04:21:33;2.25;;;2.13;;
38312;SDS011;24114;52.260;6.714;2022-10-16T04:24:01;2.92;;;1.85;;
38312;SDS011;24114;52.260;6.714;2022-10-16T04:26:30;2.15;;;1.90;;
38312;SDS011;24114;52.260;6.714;2022-10-16T04:28:58;2.92;;;2.35;;
38312;SDS011;24114;52.260;6.714;2022-10-16T04:31:25;2.70;;;1.90;;
38312;SDS011;24114;52.260;6.714;2022-10-16T04:33:53;2.42;;;2.00;;
38312;SDS011;24114;52.260;6.714;2022-10-16T04:36:21;2.03;;;1.80;;
38312;SDS011;24114;52.260;6.714;2022-10-16T04:38:54;2.40;;;2.13;;
38312;SDS011;24114;52.260;6.714;2022-10-16T04:41:22;2.38;;;1.95;;
38312;SDS011;24114;52.260;6.714;2022-10-16T04:43:51;3.80;;;2.33;;
38312;SDS011;24114;52.260;6.714;2022-10-16T04:46:18;3.67;;;2.20;;
38312;SDS011;24114;52.260;6.714;2022-10-16T04:48:46;2.15;;;1.95;;
38312;SDS011;24114;52.260;6.714;2022-10-16T04:51:13;2.17;;;1.98;;
38312;SDS011;24114;52.260;6.714;2022-10-16T04:53:41;2.42;;;1.90;;
38312;SDS011;24114;52.260;6.714;2022-10-16T04:56:09;2.38;;;2.10;;
38312;SDS011;24114;52.260;6.714;2022-10-16T04:58:36;3.75;;;2.25;;
38312;SDS011;24114;52.260;6.714;2022-10-16T05:01:05;3.35;;;2.30;;
38312;SDS011;24114;52.260;6.714;2022-10-16T05:03:33;2.53;;;2.30;;
38312;SDS011;24114;52.260;6.714;2022-10-16T05:06:01;2.93;;;2.37;;
38312;SDS011;24114;52.260;6.714;2022-10-16T05:08:30;5.82;;;2.33;;
38312;SDS011;24114;52.260;6.714;2022-10-16T05:10:57;4.03;;;2.42;;
38312;SDS011;24114;52.260;6.714;2022-10-16T05:13:25;2.73;;;1.93;;
38312;SDS011;24114;52.260;6.714;2022-10-16T05:15:53;2.92;;;2.30;;
38312;SDS011;24114;52.260;6.714;2022-10-16T05:18:22;2.58;;;2.28;;
38312;SDS011;24114;52.260;6.714;2022-10-16T05:20:49;4.20;;;1.73;;
38312;SDS011;24114;52.260;6.714;2022-10-16T05:23:17;2.40;;;1.90;;
38312;SDS011;24114;52.260;6.714;2022-10-16T05:25:51;2.47;;;1.80;;
38312;SDS011;24114;52.260;6.714;2022-10-16T05:28:19;2.78;;;1.95;;
38312;SDS011;24114;52.260;6.714;2022-10-16T05:30:47;2.65;;;1.95;;
38312;SDS011;24114;52.260;6.714;2022-10-16T05:33:15;2.42;;;2.00;;
38312;SDS011;24114;52.260;6.714;2022-10-16T05:35:44;1.70;;;1.60;;
38312;SDS011;24114;52.260;6.714;2022-10-16T05:38:12;3.37;;;2.00;;
38312;SDS011;24114;52.260;6.714;2022-10-16T05:40:40;2.83;;;2.05;;
38312;SDS011;24114;52.260;6.714;2022-10-16T05:43:08;3.30;;;1.77;;
38312;SDS011;24114;52.260;6.714;2022-10-16T05:45:35;4.13;;;2.00;;
38312;SDS011;24114;52.260;6.714;2022-10-16T05:48:03;3.13;;;1.83;;
38312;SDS011;24114;52.260;6.714;2022-10-16T05:50:31;4.00;;;1.90;;
38312;SDS011;24114;52.260;6.714;2022-10-16T05:53:00;2.75;;;1.90;;
38312;SDS011;24114;52.260;6.714;2022-10-16T05:55:28;2.45;;;1.60;;
38312;SDS011;24114;52.260;6.714;2022-10-16T05:57:56;2.45;;;2.15;;
38312;SDS011;24114;52.260;6.714;2022-10-16T06:00:23;2.50;;;1.85;;
38312;SDS011;24114;52.260;6.714;2022-10-16T06:02:51;2.45;;;1.70;;
38312;SDS011;24114;52.260;6.714;2022-10-16T06:05:18;3.10;;;1.70;;
38312;SDS011;24114;52.260;6.714;2022-10-16T06:07:46;2.05;;;1.88;;
38312;SDS011;24114;52.260;6.714;2022-10-16T06:10:15;2.30;;;1.80;;
38312;SDS011;24114;52.260;6.714;2022-10-16T06:12:43;5.30;;;1.70;;
38312;SDS011;24114;52.260;6.714;2022-10-16T06:15:11;3.47;;;2.05;;
38312;SDS011;24114;52.260;6.714;2022-10-16T06:17:38;3.13;;;1.70;;
38312;SDS011;24114;52.260;6.714;2022-10-16T06:20:06;4.47;;;2.13;;
38312;SDS011;24114;52.260;6.714;2022-10-16T06:22:34;2.70;;;1.80;;
38312;SDS011;24114;52.260;6.714;2022-10-16T06:25:03;2.30;;;1.92;;
38312;SDS011;24114;52.260;6.714;2022-10-16T06:27:32;4.03;;;2.73;;
38312;SDS011;24114;52.260;6.714;2022-10-16T06:30:00;4.03;;;2.80;;
38312;SDS011;24114;52.260;6.714;2022-10-16T06:32:29;3.10;;;2.80;;
38312;SDS011;24114;52.260;6.714;2022-10-16T06:34:57;3.10;;;1.70;;
38312;SDS011;24114;52.260;6.714;2022-10-16T06:37:25;2.93;;;1.83;;
38312;SDS011;24114;52.260;6.714;2022-10-16T06:39:54;2.63;;;2.20;;
38312;SDS011;24114;52.260;6.714;2022-10-16T06:42:22;2.65;;;2.38;;
38312;SDS011;24114;52.260;6.714;2022-10-16T06:44:51;3.67;;;2.03;;
38312;SDS011;24114;52.260;6.714;2022-10-16T06:47:19;2.55;;;2.00;;
38312;SDS011;24114;52.260;6.714;2022-10-16T06:49:47;2.90;;;2.10;;
38312;SDS011;24114;52.260;6.714;2022-10-16T06:52:19;5.18;;;2.40;;
38312;SDS011;24114;52.260;6.714;2022-10-16T06:54:47;3.47;;;3.00;;
38312;SDS011;24114;52.260;6.714;2022-10-16T06:57:14;4.38;;;2.35;;
38312;SDS011;24114;52.260;6.714;2022-10-16T06:59:42;4.20;;;2.35;;
38312;SDS011;24114;52.260;6.714;2022-10-16T07:02:13;6.05;;;2.10;;
38312;SDS011;24114;52.260;6.714;2022-10-16T07:04:41;3.35;;;2.13;;
38312;SDS011;24114;52.260;6.714;2022-10-16T07:07:09;5.45;;;1.90;;
38312;SDS011;24114;52.260;6.714;2022-10-16T07:09:36;3.30;;;2.00;;
38312;SDS011;24114;52.260;6.714;2022-10-16T07:12:04;2.58;;;1.83;;
38312;SDS011;24114;52.260;6.714;2022-10-16T07:14:32;3.80;;;2.00;;
38312;SDS011;24114;52.260;6.714;2022-10-16T07:16:59;3.40;;;1.70;;
38312;SDS011;24114;52.260;6.714;2022-10-16T07:19:28;4.70;;;2.27;;
38312;SDS011;24114;52.260;6.714;2022-10-16T07:21:59;3.15;;;1.90;;
38312;SDS011;24114;52.260;6.714;2022-10-16T07:24:27;3.03;;;2.08;;
38312;SDS011;24114;52.260;6.714;2022-10-16T07:26:55;4.70;;;2.22;;
38312;SDS011;24114;52.260;6.714;2022-10-16T07:29:23;2.90;;;1.83;;
38312;SDS011;24114;52.260;6.714;2022-10-16T07:31:50;3.55;;;1.77;;
38312;SDS011;24114;52.260;6.714;2022-10-16T07:34:18;3.95;;;1.92;;
38312;SDS011;24114;52.260;6.714;2022-10-16T07:36:49;3.58;;;1.80;;
38312;SDS011;24114;52.260;6.714;2022-10-16T07:39:17;2.27;;;1.83;;
38312;SDS011;24114;52.260;6.714;2022-10-16T07:41:45;3.55;;;2.00;;
38312;SDS011;24114;52.260;6.714;2022-10-16T07:44:12;3.33;;;2.08;;
38312;SDS011;24114;52.260;6.714;2022-10-16T07:46:40;4.20;;;2.00;;
38312;SDS011;24114;52.260;6.714;2022-10-16T07:49:08;3.15;;;1.70;;
38312;SDS011;24114;52.260;6.714;2022-10-16T07:51:36;4.10;;;1.88;;
38312;SDS011;24114;52.260;6.714;2022-10-16T07:54:07;6.57;;;1.95;;
38312;SDS011;24114;52.260;6.714;2022-10-16T07:56:35;3.03;;;1.50;;
38312;SDS011;24114;52.260;6.714;2022-10-16T07:59:08;3.20;;;1.85;;
38312;SDS011;24114;52.260;6.714;2022-10-16T08:01:35;3.13;;;1.77;;
38312;SDS011;24114;52.260;6.714;2022-10-16T08:04:03;5.47;;;2.05;;
38312;SDS011;24114;52.260;6.714;2022-10-16T08:06:34;2.78;;;1.80;;
38312;SDS011;24114;52.260;6.714;2022-10-16T08:09:03;3.58;;;2.05;;
38312;SDS011;24114;52.260;6.714;2022-10-16T08:11:32;2.85;;;1.80;;
38312;SDS011;24114;52.260;6.714;2022-10-16T08:14:00;3.05;;;2.03;;
38312;SDS011;24114;52.260;6.714;2022-10-16T08:16:28;3.00;;;2.05;;
38312;SDS011;24114;52.260;6.714;2022-10-16T08:18:55;3.17;;;1.70;;
38312;SDS011;24114;52.260;6.714;2022-10-16T08:21:23;2.58;;;1.42;;
38312;SDS011;24114;52.260;6.714;2022-10-16T08:23:52;3.15;;;1.60;;
38312;SDS011;24114;52.260;6.714;2022-10-16T08:26:23;4.25;;;1.80;;
38312;SDS011;24114;52.260;6.714;2022-10-16T08:28:53;2.83;;;1.70;;
38312;SDS011;24114;52.260;6.714;2022-10-16T08:31:22;3.83;;;1.80;;
38312;SDS011;24114;52.260;6.714;2022-10-16T08:33:50;3.05;;;1.75;;
38312;SDS011;24114;52.260;6.714;2022-10-16T08:36:18;3.20;;;1.40;;
38312;SDS011;24114;52.260;6.714;2022-10-16T08:38:47;2.33;;;1.60;;
38312;SDS011;24114;52.260;6.714;2022-10-16T08:41:19;3.08;;;1.50;;
38312;SDS011;24114;52.260;6.714;2022-10-16T08:44:05;4.07;;;2.50;;
38312;SDS011;24114;52.260;6.714;2022-10-16T08:46:42;6.72;;;1.95;;
38312;SDS011;24114;52.260;6.714;2022-10-16T08:49:16;2.83;;;1.70;;
38312;SDS011;24114;52.260;6.714;2022-10-16T08:51:44;4.00;;;1.95;;
38312;SDS011;24114;52.260;6.714;2022-10-16T08:54:15;2.72;;;1.70;;
38312;SDS011;24114;52.260;6.714;2022-10-16T08:56:50;4.85;;;1.90;;
38312;SDS011;24114;52.260;6.714;2022-10-16T08:59:19;2.90;;;1.97;;
38312;SDS011;24114;52.260;6.714;2022-10-16T09:01:47;3.40;;;2.00;;
38312;SDS011;24114;52.260;6.714;2022-10-16T09:04:23;3.20;;;1.77;;
38312;SDS011;24114;52.260;6.714;2022-10-16T09:07:09;3.92;;;1.77;;
38312;SDS011;24114;52.260;6.714;2022-10-16T09:09:52;4.03;;;1.90;;
38312;SDS011;24114;52.260;6.714;2022-10-16T09:12:26;4.22;;;2.10;;
38312;SDS011;24114;52.260;6.714;2022-10-16T09:15:00;3.88;;;1.60;;
38312;SDS011;24114;52.260;6.714;2022-10-16T09:17:33;2.30;;;1.67;;
38312;SDS011;24114;52.260;6.714;2022-10-16T09:22:55;3.55;;;1.85;;
38312;SDS011;24114;52.260;6.714;2022-10-16T09:25:35;5.70;;;3.03;;
38312;SDS011;24114;52.260;6.714;2022-10-16T09:28:07;4.30;;;2.35;;
38312;SDS011;24114;52.260;6.714;2022-10-16T09:30:37;2.85;;;1.60;;
38312;SDS011;24114;52.260;6.714;2022-10-16T09:33:05;4.82;;;1.92;;
38312;SDS011;24114;52.260;6.714;2022-10-16T09:35:36;3.95;;;1.67;;
38312;SDS011;24114;52.260;6.714;2022-10-16T09:38:05;3.08;;;1.38;;
38312;SDS011;24114;52.260;6.714;2022-10-16T09:40:33;3.50;;;1.63;;
38312;SDS011;24114;52.260;6.714;2022-10-16T09:43:06;3.37;;;1.70;;
38312;SDS011;24114;52.260;6.714;2022-10-16T09:45:43;3.95;;;1.48;;
38312;SDS011;24114;52.260;6.714;2022-10-16T09:48:21;3.37;;;1.27;;
38312;SDS011;24114;52.260;6.714;2022-10-16T09:50:56;2.77;;;1.43;;
38312;SDS011;24114;52.260;6.714;2022-10-16T09:53:25;3.38;;;1.50;;
38312;SDS011;24114;52.260;6.714;2022-10-16T09:56:03;3.53;;;1.77;;
38312;SDS011;24114;52.260;6.714;2022-10-16T09:58:38;2.23;;;1.50;;
38312;SDS011;24114;52.260;6.714;2022-10-16T10:01:12;3.50;;;1.73;;
38312;SDS011;24114;52.260;6.714;2022-10-16T10:03:40;3.92;;;1.38;;
38312;SDS011;24114;52.260;6.714;2022-10-16T10:06:17;3.47;;;1.63;;
38312;SDS011;24114;52.260;6.714;2022-10-16T10:08:53;4.68;;;1.65;;
38312;SDS011;24114;52.260;6.714;2022-10-16T10:14:22;6.75;;;1.75;;
38312;SDS011;24114;52.260;6.714;2022-10-16T10:17:01;4.97;;;1.83;;
38312;SDS011;24114;52.260;6.714;2022-10-16T10:19:37;4.13;;;1.58;;
38312;SDS011;24114;52.260;6.714;2022-10-16T10:22:13;5.32;;;1.52;;
38312;SDS011;24114;52.260;6.714;2022-10-16T10:24:43;4.88;;;1.58;;
38312;SDS011;24114;52.260;6.714;2022-10-16T10:27:13;3.38;;;1.40;;
38312;SDS011;24114;52.260;6.714;2022-10-16T10:29:46;4.78;;;1.52;;
38312;SDS011;24114;52.260;6.714;2022-10-16T10:32:19;3.78;;;1.35;;
38312;SDS011;24114;52.260;6.714;2022-10-16T10:34:55;4.90;;;1.30;;
38312;SDS011;24114;52.260;6.714;2022-10-16T10:37:34;3.53;;;1.30;;
38312;SDS011;24114;52.260;6.714;2022-10-16T10:40:11;5.87;;;1.30;;
38312;SDS011;24114;52.260;6.714;2022-10-16T10:42:44;4.85;;;1.40;;
38312;SDS011;24114;52.260;6.714;2022-10-16T10:45:21;7.68;;;1.33;;
38312;SDS011;24114;52.260;6.714;2022-10-16T10:48:02;6.22;;;1.58;;
38312;SDS011;24114;52.260;6.714;2022-10-16T10:50:39;6.20;;;1.30;;
38312;SDS011;24114;52.260;6.714;2022-10-16T10:53:11;4.93;;;1.00;;
38312;SDS011;24114;52.260;6.714;2022-10-16T10:55:47;5.15;;;0.98;;
38312;SDS011;24114;52.260;6.714;2022-10-16T10:58:23;6.55;;;1.00;;
38312;SDS011;24114;52.260;6.714;2022-10-16T11:01:01;5.87;;;1.13;;
38312;SDS011;24114;52.260;6.714;2022-10-16T11:03:39;6.05;;;1.20;;
38312;SDS011;24114;52.260;6.714;2022-10-16T11:06:13;4.88;;;0.95;;
38312;SDS011;24114;52.260;6.714;2022-10-16T11:08:43;5.88;;;0.95;;
38312;SDS011;24114;52.260;6.714;2022-10-16T11:11:14;7.43;;;1.23;;
38312;SDS011;24114;52.260;6.714;2022-10-16T11:13:45;5.90;;;1.08;;
38312;SDS011;24114;52.260;6.714;2022-10-16T11:16:20;7.65;;;0.90;;
38312;SDS011;24114;52.260;6.714;2022-10-16T11:18:52;8.10;;;0.80;;
38312;SDS011;24114;52.260;6.714;2022-10-16T11:21:25;5.47;;;0.95;;
38312;SDS011;24114;52.260;6.714;2022-10-16T11:23:57;8.73;;;0.80;;
38312;SDS011;24114;52.260;6.714;2022-10-16T11:26:28;5.85;;;0.98;;
38312;SDS011;24114;52.260;6.714;2022-10-16T11:28:58;6.07;;;1.27;;
38312;SDS011;24114;52.260;6.714;2022-10-16T11:31:28;5.40;;;0.75;;
38312;SDS011;24114;52.260;6.714;2022-10-16T11:34:02;7.90;;;1.20;;
38312;SDS011;24114;52.260;6.714;2022-10-16T11:36:35;8.40;;;1.17;;
38312;SDS011;24114;52.260;6.714;2022-10-16T11:39:08;4.85;;;0.90;;
38312;SDS011;24114;52.260;6.714;2022-10-16T11:41:44;7.07;;;0.98;;
38312;SDS011;24114;52.260;6.714;2022-10-16T11:44:27;5.43;;;1.02;;
38312;SDS011;24114;52.260;6.714;2022-10-16T11:47:05;5.87;;;0.73;;
38312;SDS011;24114;52.260;6.714;2022-10-16T11:50:00;7.85;;;1.27;;
38312;SDS011;24114;52.260;6.714;2022-10-16T11:52:30;5.93;;;0.90;;
38312;SDS011;24114;52.260;6.714;2022-10-16T11:55:04;5.83;;;0.60;;
38312;SDS011;24114;52.260;6.714;2022-10-16T11:57:33;4.95;;;0.88;;
38312;SDS011;24114;52.260;6.714;2022-10-16T12:00:06;5.97;;;0.70;;
38312;SDS011;24114;52.260;6.714;2022-10-16T12:02:40;5.35;;;0.95;;
38312;SDS011;24114;52.260;6.714;2022-10-16T12:05:21;5.20;;;0.82;;
38312;SDS011;24114;52.260;6.714;2022-10-16T12:07:55;4.88;;;0.82;;
38312;SDS011;24114;52.260;6.714;2022-10-16T12:10:29;4.65;;;0.80;;
38312;SDS011;24114;52.260;6.714;2022-10-16T12:16:04;8.57;;;1.07;;
38312;SDS011;24114;52.260;6.714;2022-10-16T12:18:32;5.50;;;1.00;;
38312;SDS011;24114;52.260;6.714;2022-10-16T12:21:02;5.50;;;0.80;;
38312;SDS011;24114;52.260;6.714;2022-10-16T12:23:32;6.18;;;0.88;;
38312;SDS011;24114;52.260;6.714;2022-10-16T12:26:00;5.28;;;0.75;;
38312;SDS011;24114;52.260;6.714;2022-10-16T12:28:29;5.93;;;1.10;;
38312;SDS011;24114;52.260;6.714;2022-10-16T12:30:59;7.97;;;1.10;;
38312;SDS011;24114;52.260;6.714;2022-10-16T12:33:28;6.90;;;1.10;;
38312;SDS011;24114;52.260;6.714;2022-10-16T12:35:57;4.40;;;0.68;;
38312;SDS011;24114;52.260;6.714;2022-10-16T12:38:27;5.25;;;0.60;;
38312;SDS011;24114;52.260;6.714;2022-10-16T12:40:58;4.43;;;0.77;;
38312;SDS011;24114;52.260;6.714;2022-10-16T12:43:37;4.35;;;0.90;;
38312;SDS011;24114;52.260;6.714;2022-10-16T12:46:22;6.90;;;1.20;;
38312;SDS011;24114;52.260;6.714;2022-10-16T12:49:07;5.53;;;0.77;;
38312;SDS011;24114;52.260;6.714;2022-10-16T12:51:50;5.55;;;0.90;;
38312;SDS011;24114;52.260;6.714;2022-10-16T12:54:21;5.43;;;0.80;;
38312;SDS011;24114;52.260;6.714;2022-10-16T12:56:56;6.47;;;1.15;;
38312;SDS011;24114;52.260;6.714;2022-10-16T12:59:32;6.57;;;1.20;;
38312;SDS011;24114;52.260;6.714;2022-10-16T13:02:07;6.45;;;0.90;;
38312;SDS011;24114;52.260;6.714;2022-10-16T13:04:55;4.43;;;0.80;;
38312;SDS011;24114;52.260;6.714;2022-10-16T13:07:43;6.68;;;1.10;;
38312;SDS011;24114;52.260;6.714;2022-10-16T13:10:20;6.07;;;0.73;;
38312;SDS011;24114;52.260;6.714;2022-10-16T13:13:00;5.05;;;0.80;;
38312;SDS011;24114;52.260;6.714;2022-10-16T13:15:51;5.87;;;1.07;;
38312;SDS011;24114;52.260;6.714;2022-10-16T13:18:27;4.67;;;0.63;;
38312;SDS011;24114;52.260;6.714;2022-10-16T13:21:01;6.20;;;0.75;;
38312;SDS011;24114;52.260;6.714;2022-10-16T13:23:40;6.93;;;0.80;;
38312;SDS011;24114;52.260;6.714;2022-10-16T13:26:16;5.50;;;0.50;;
38312;SDS011;24114;52.260;6.714;2022-10-16T13:28:49;5.40;;;0.90;;
38312;SDS011;24114;52.260;6.714;2022-10-16T13:31:17;5.10;;;0.85;;
38312;SDS011;24114;52.260;6.714;2022-10-16T13:33:47;5.60;;;1.10;;
38312;SDS011;24114;52.260;6.714;2022-10-16T13:36:19;5.82;;;0.88;;
38312;SDS011;24114;52.260;6.714;2022-10-16T13:38:48;5.20;;;0.63;;
38312;SDS011;24114;52.260;6.714;2022-10-16T13:41:17;4.97;;;0.73;;
38312;SDS011;24114;52.260;6.714;2022-10-16T13:43:47;4.53;;;0.60;;
38312;SDS011;24114;52.260;6.714;2022-10-16T13:46:16;6.03;;;0.55;;
38312;SDS011;24114;52.260;6.714;2022-10-16T13:48:55;6.43;;;0.85;;
38312;SDS011;24114;52.260;6.714;2022-10-16T13:51:24;5.13;;;0.60;;
38312;SDS011;24114;52.260;6.714;2022-10-16T13:53:52;5.70;;;0.80;;
38312;SDS011;24114;52.260;6.714;2022-10-16T13:56:21;6.80;;;0.95;;
38312;SDS011;24114;52.260;6.714;2022-10-16T13:58:58;5.97;;;1.00;;
38312;SDS011;24114;52.260;6.714;2022-10-16T14:01:26;5.47;;;1.37;;
38312;SDS011;24114;52.260;6.714;2022-10-16T14:04:02;6.47;;;1.03;;
38312;SDS011;24114;52.260;6.714;2022-10-16T14:06:31;6.30;;;0.75;;
38312;SDS011;24114;52.260;6.714;2022-10-16T14:09:00;3.50;;;0.60;;
38312;SDS011;24114;52.260;6.714;2022-10-16T14:11:31;7.10;;;0.90;;
38312;SDS011;24114;52.260;6.714;2022-10-16T14:13:59;5.70;;;0.57;;
38312;SDS011;24114;52.260;6.714;2022-10-16T14:16:29;4.27;;;0.97;;
38312;SDS011;24114;52.260;6.714;2022-10-16T14:18:58;4.45;;;1.00;;
38312;SDS011;24114;52.260;6.714;2022-10-16T14:21:27;6.88;;;0.98;;
38312;SDS011;24114;52.260;6.714;2022-10-16T14:23:55;4.53;;;0.82;;
38312;SDS011;24114;52.260;6.714;2022-10-16T14:26:24;5.57;;;0.80;;
38312;SDS011;24114;52.260;6.714;2022-10-16T14:29:09;6.90;;;1.17;;
38312;SDS011;24114;52.260;6.714;2022-10-16T14:31:39;5.72;;;0.73;;
38312;SDS011;24114;52.260;6.714;2022-10-16T14:36:51;5.70;;;0.70;;
38312;SDS011;24114;52.260;6.714;2022-10-16T14:39:19;4.17;;;0.90;;
38312;SDS011;24114;52.260;6.714;2022-10-16T14:41:48;9.02;;;1.55;;
38312;SDS011;24114;52.260;6.714;2022-10-16T14:44:19;6.37;;;0.87;;
38312;SDS011;24114;52.260;6.714;2022-10-16T14:46:49;5.50;;;1.00;;
38312;SDS011;24114;52.260;6.714;2022-10-16T14:49:17;5.33;;;0.93;;
38312;SDS011;24114;52.260;6.714;2022-10-16T14:51:46;5.97;;;0.90;;
38312;SDS011;24114;52.260;6.714;2022-10-16T14:54:14;7.00;;;0.75;;
38312;SDS011;24114;52.260;6.714;2022-10-16T14:56:45;7.35;;;0.93;;
38312;SDS011;24114;52.260;6.714;2022-10-16T14:59:16;6.07;;;1.00;;
38312;SDS011;24114;52.260;6.714;2022-10-16T15:01:55;6.05;;;0.80;;
38312;SDS011;24114;52.260;6.714;2022-10-16T15:04:23;6.40;;;1.48;;
38312;SDS011;24114;52.260;6.714;2022-10-16T15:06:51;12.07;;;3.75;;
38312;SDS011;24114;52.260;6.714;2022-10-16T15:09:18;7.00;;;2.30;;
38312;SDS011;24114;52.260;6.714;2022-10-16T15:11:46;6.30;;;2.10;;
38312;SDS011;24114;52.260;6.714;2022-10-16T15:14:14;12.17;;;3.87;;
38312;SDS011;24114;52.260;6.714;2022-10-16T15:16:43;9.43;;;3.10;;
38312;SDS011;24114;52.260;6.714;2022-10-16T15:19:11;7.00;;;2.03;;
38312;SDS011;24114;52.260;6.714;2022-10-16T15:21:39;7.43;;;1.48;;
38312;SDS011;24114;52.260;6.714;2022-10-16T15:24:08;6.13;;;1.38;;